sensor_id;sensor_type;location;lat;lon;timestamp;P1;durP1;ratioP1;P2;durP2;ratioP2
7561;SDS011;3822;48.784;9.174;2022-07-21T00:02:14;9.60;;;8.60;;
7561;SDS011;3822;48.784;9.174;2022-07-21T00:04:40;11.77;;;8.53;;
7561;SDS011;3822;48.784;9.174;2022-07-21T00:07:07;12.23;;;9.53;;
7561;SDS011;3822;48.784;9.174;2022-07-21T00:09:34;11.60;;;9.30;;
7561;SDS011;3822;48.784;9.174;2022-07-21T00:12:02;14.73;;;9.10;;
7561;SDS011;3822;48.784;9.174;2022-07-21T00:14:30;13.07;;;9.13;;
7561;SDS011;3822;48.784;9.174;2022-07-21T00:16:56;11.70;;;9.60;;
7561;SDS011;3822;48.784;9.174;2022-07-21T00:19:23;11.23;;;9.93;;
7561;SDS011;3822;48.784;9.174;2022-07-21T00:21:50;12.00;;;9.40;;
7561;SDS011;3822;48.784;9.174;2022-07-21T00:24:16;11.57;;;9.53;;
7561;SDS011;3822;48.784;9.174;2022-07-21T00:26:43;11.97;;;10.10;;
7561;SDS011;3822;48.784;9.174;2022-07-21T00:29:09;11.10;;;9.87;;
7561;SDS011;3822;48.784;9.174;2022-07-21T00:31:36;15.30;;;10.03;;
7561;SDS011;3822;48.784;9.174;2022-07-21T00:34:02;12.10;;;9.53;;
7561;SDS011;3822;48.784;9.174;2022-07-21T00:36:29;11.63;;;8.83;;
7561;SDS011;3822;48.784;9.174;2022-07-21T00:38:55;13.07;;;9.60;;
7561;SDS011;3822;48.784;9.174;2022-07-21T00:41:22;9.83;;;8.83;;
7561;SDS011;3822;48.784;9.174;2022-07-21T00:43:48;11.13;;;8.60;;
7561;SDS011;3822;48.784;9.174;2022-07-21T00:46:15;9.87;;;8.87;;
7561;SDS011;3822;48.784;9.174;2022-07-21T00:48:41;10.13;;;7.97;;
7561;SDS011;3822;48.784;9.174;2022-07-21T00:51:08;10.73;;;8.10;;
7561;SDS011;3822;48.784;9.174;2022-07-21T00:53:34;12.87;;;10.00;;
7561;SDS011;3822;48.784;9.174;2022-07-21T00:56:01;13.63;;;8.63;;
7561;SDS011;3822;48.784;9.174;2022-07-21T00:58:28;10.20;;;7.73;;
7561;SDS011;3822;48.784;9.174;2022-07-21T01:00:55;10.30;;;8.73;;
7561;SDS011;3822;48.784;9.174;2022-07-21T01:03:21;15.27;;;9.47;;
7561;SDS011;3822;48.784;9.174;2022-07-21T01:05:49;9.50;;;8.33;;
7561;SDS011;3822;48.784;9.174;2022-07-21T01:08:15;12.60;;;9.80;;
7561;SDS011;3822;48.784;9.174;2022-07-21T01:10:42;10.00;;;8.97;;
7561;SDS011;3822;48.784;9.174;2022-07-21T01:13:09;12.17;;;9.90;;
7561;SDS011;3822;48.784;9.174;2022-07-21T01:15:36;10.80;;;9.53;;
7561;SDS011;3822;48.784;9.174;2022-07-21T01:18:03;8.73;;;7.63;;
7561;SDS011;3822;48.784;9.174;2022-07-21T01:20:31;12.00;;;9.97;;
7561;SDS011;3822;48.784;9.174;2022-07-21T01:23:03;9.27;;;8.30;;
7561;SDS011;3822;48.784;9.174;2022-07-21T01:25:30;13.03;;;9.37;;
7561;SDS011;3822;48.784;9.174;2022-07-21T01:27:57;9.17;;;7.97;;
7561;SDS011;3822;48.784;9.174;2022-07-21T01:30:24;9.30;;;8.00;;
7561;SDS011;3822;48.784;9.174;2022-07-21T01:32:50;11.20;;;8.87;;
7561;SDS011;3822;48.784;9.174;2022-07-21T01:35:17;15.40;;;8.63;;
7561;SDS011;3822;48.784;9.174;2022-07-21T01:37:45;11.33;;;8.27;;
7561;SDS011;3822;48.784;9.174;2022-07-21T01:40:13;10.07;;;9.03;;
7561;SDS011;3822;48.784;9.174;2022-07-21T01:43:01;12.90;;;9.27;;
7561;SDS011;3822;48.784;9.174;2022-07-21T01:45:29;10.20;;;8.80;;
7561;SDS011;3822;48.784;9.174;2022-07-21T01:47:55;10.83;;;8.40;;
7561;SDS011;3822;48.784;9.174;2022-07-21T01:50:22;11.80;;;8.00;;
7561;SDS011;3822;48.784;9.174;2022-07-21T01:52:53;10.77;;;7.90;;
7561;SDS011;3822;48.784;9.174;2022-07-21T01:55:24;9.13;;;7.13;;
7561;SDS011;3822;48.784;9.174;2022-07-21T01:57:51;10.97;;;7.70;;
7561;SDS011;3822;48.784;9.174;2022-07-21T02:00:18;10.50;;;8.77;;
7561;SDS011;3822;48.784;9.174;2022-07-21T02:02:45;9.87;;;7.67;;
7561;SDS011;3822;48.784;9.174;2022-07-21T02:05:12;9.37;;;7.90;;
7561;SDS011;3822;48.784;9.174;2022-07-21T02:07:38;9.17;;;7.80;;
7561;SDS011;3822;48.784;9.174;2022-07-21T02:10:05;12.33;;;8.57;;
7561;SDS011;3822;48.784;9.174;2022-07-21T02:12:32;9.07;;;7.83;;
7561;SDS011;3822;48.784;9.174;2022-07-21T02:14:58;10.70;;;8.40;;
7561;SDS011;3822;48.784;9.174;2022-07-21T02:17:25;7.97;;;7.17;;
7561;SDS011;3822;48.784;9.174;2022-07-21T02:19:51;8.67;;;7.20;;
7561;SDS011;3822;48.784;9.174;2022-07-21T02:22:18;10.43;;;7.77;;
7561;SDS011;3822;48.784;9.174;2022-07-21T02:24:44;9.13;;;7.97;;
7561;SDS011;3822;48.784;9.174;2022-07-21T02:27:11;9.47;;;8.07;;
7561;SDS011;3822;48.784;9.174;2022-07-21T02:29:37;8.30;;;7.50;;
7561;SDS011;3822;48.784;9.174;2022-07-21T02:32:04;10.03;;;7.83;;
7561;SDS011;3822;48.784;9.174;2022-07-21T02:34:31;11.17;;;8.03;;
7561;SDS011;3822;48.784;9.174;2022-07-21T02:36:57;9.33;;;8.43;;
7561;SDS011;3822;48.784;9.174;2022-07-21T02:39:24;9.37;;;7.40;;
7561;SDS011;3822;48.784;9.174;2022-07-21T02:41:51;7.87;;;7.07;;
7561;SDS011;3822;48.784;9.174;2022-07-21T02:44:18;9.07;;;7.93;;
7561;SDS011;3822;48.784;9.174;2022-07-21T02:46:44;8.10;;;7.27;;
7561;SDS011;3822;48.784;9.174;2022-07-21T02:49:11;9.10;;;7.50;;
7561;SDS011;3822;48.784;9.174;2022-07-21T02:51:37;9.30;;;7.90;;
7561;SDS011;3822;48.784;9.174;2022-07-21T02:54:04;9.00;;;7.23;;
7561;SDS011;3822;48.784;9.174;2022-07-21T02:56:30;7.80;;;6.30;;
7561;SDS011;3822;48.784;9.174;2022-07-21T02:58:57;7.67;;;6.90;;
7561;SDS011;3822;48.784;9.174;2022-07-21T03:01:23;7.37;;;6.53;;
7561;SDS011;3822;48.784;9.174;2022-07-21T03:03:50;9.13;;;7.60;;
7561;SDS011;3822;48.784;9.174;2022-07-21T03:06:16;8.97;;;6.93;;
7561;SDS011;3822;48.784;9.174;2022-07-21T03:08:43;11.60;;;6.97;;
7561;SDS011;3822;48.784;9.174;2022-07-21T03:11:10;10.40;;;7.07;;
7561;SDS011;3822;48.784;9.174;2022-07-21T03:13:36;8.27;;;6.60;;
7561;SDS011;3822;48.784;9.174;2022-07-21T03:16:02;7.37;;;6.67;;
7561;SDS011;3822;48.784;9.174;2022-07-21T03:18:29;7.37;;;6.30;;
7561;SDS011;3822;48.784;9.174;2022-07-21T03:20:56;7.77;;;6.47;;
7561;SDS011;3822;48.784;9.174;2022-07-21T03:23:24;10.10;;;7.63;;
7561;SDS011;3822;48.784;9.174;2022-07-21T03:25:50;8.07;;;6.70;;
7561;SDS011;3822;48.784;9.174;2022-07-21T03:28:17;9.83;;;7.10;;
7561;SDS011;3822;48.784;9.174;2022-07-21T03:30:43;9.93;;;6.33;;
7561;SDS011;3822;48.784;9.174;2022-07-21T03:33:10;8.63;;;6.90;;
7561;SDS011;3822;48.784;9.174;2022-07-21T03:35:36;6.73;;;5.57;;
7561;SDS011;3822;48.784;9.174;2022-07-21T03:38:03;8.20;;;6.60;;
7561;SDS011;3822;48.784;9.174;2022-07-21T03:40:34;10.80;;;7.20;;
7561;SDS011;3822;48.784;9.174;2022-07-21T03:43:03;8.13;;;6.20;;
7561;SDS011;3822;48.784;9.174;2022-07-21T03:45:32;8.80;;;6.00;;
7561;SDS011;3822;48.784;9.174;2022-07-21T03:48:01;10.40;;;6.50;;
7561;SDS011;3822;48.784;9.174;2022-07-21T03:50:30;8.10;;;6.63;;
7561;SDS011;3822;48.784;9.174;2022-07-21T03:52:57;7.00;;;6.30;;
7561;SDS011;3822;48.784;9.174;2022-07-21T03:55:24;7.13;;;6.13;;
7561;SDS011;3822;48.784;9.174;2022-07-21T03:57:52;6.60;;;5.83;;
7561;SDS011;3822;48.784;9.174;2022-07-21T04:00:27;8.83;;;7.67;;
7561;SDS011;3822;48.784;9.174;2022-07-21T04:02:55;9.73;;;6.30;;
7561;SDS011;3822;48.784;9.174;2022-07-21T04:05:23;7.57;;;6.60;;
7561;SDS011;3822;48.784;9.174;2022-07-21T04:07:51;9.50;;;7.40;;
7561;SDS011;3822;48.784;9.174;2022-07-21T04:10:22;10.10;;;7.13;;
7561;SDS011;3822;48.784;9.174;2022-07-21T04:12:56;7.73;;;6.77;;
7561;SDS011;3822;48.784;9.174;2022-07-21T04:15:25;7.40;;;6.53;;
7561;SDS011;3822;48.784;9.174;2022-07-21T04:17:52;7.63;;;6.83;;
7561;SDS011;3822;48.784;9.174;2022-07-21T04:20:19;11.30;;;7.87;;
7561;SDS011;3822;48.784;9.174;2022-07-21T04:22:46;11.50;;;8.63;;
7561;SDS011;3822;48.784;9.174;2022-07-21T04:25:14;9.47;;;7.13;;
7561;SDS011;3822;48.784;9.174;2022-07-21T04:27:43;8.80;;;7.27;;
7561;SDS011;3822;48.784;9.174;2022-07-21T04:30:11;8.93;;;7.40;;
7561;SDS011;3822;48.784;9.174;2022-07-21T04:32:44;8.60;;;7.50;;
7561;SDS011;3822;48.784;9.174;2022-07-21T04:35:11;10.97;;;8.17;;
7561;SDS011;3822;48.784;9.174;2022-07-21T04:37:38;8.50;;;7.60;;
7561;SDS011;3822;48.784;9.174;2022-07-21T04:40:06;8.63;;;6.90;;
7561;SDS011;3822;48.784;9.174;2022-07-21T04:42:35;9.00;;;7.90;;
7561;SDS011;3822;48.784;9.174;2022-07-21T04:45:02;10.90;;;7.77;;
7561;SDS011;3822;48.784;9.174;2022-07-21T04:47:31;10.13;;;7.20;;
7561;SDS011;3822;48.784;9.174;2022-07-21T04:49:57;8.50;;;7.47;;
7561;SDS011;3822;48.784;9.174;2022-07-21T04:52:24;7.93;;;7.10;;
7561;SDS011;3822;48.784;9.174;2022-07-21T04:54:50;8.97;;;7.77;;
7561;SDS011;3822;48.784;9.174;2022-07-21T04:57:17;9.83;;;7.07;;
7561;SDS011;3822;48.784;9.174;2022-07-21T04:59:43;8.90;;;7.70;;
7561;SDS011;3822;48.784;9.174;2022-07-21T05:02:10;10.40;;;7.50;;
7561;SDS011;3822;48.784;9.174;2022-07-21T05:04:37;8.17;;;6.80;;
7561;SDS011;3822;48.784;9.174;2022-07-21T05:07:03;8.17;;;6.53;;
7561;SDS011;3822;48.784;9.174;2022-07-21T05:09:30;9.17;;;7.90;;
7561;SDS011;3822;48.784;9.174;2022-07-21T05:11:56;9.37;;;7.73;;
7561;SDS011;3822;48.784;9.174;2022-07-21T05:14:23;7.50;;;6.47;;
7561;SDS011;3822;48.784;9.174;2022-07-21T05:16:49;9.93;;;7.63;;
7561;SDS011;3822;48.784;9.174;2022-07-21T05:19:16;8.33;;;7.40;;
7561;SDS011;3822;48.784;9.174;2022-07-21T05:21:42;10.90;;;6.50;;
7561;SDS011;3822;48.784;9.174;2022-07-21T05:24:09;8.30;;;7.07;;
7561;SDS011;3822;48.784;9.174;2022-07-21T05:26:36;7.43;;;6.73;;
7561;SDS011;3822;48.784;9.174;2022-07-21T05:29:02;7.57;;;6.40;;
7561;SDS011;3822;48.784;9.174;2022-07-21T05:31:29;9.73;;;7.17;;
7561;SDS011;3822;48.784;9.174;2022-07-21T05:33:56;8.93;;;6.83;;
7561;SDS011;3822;48.784;9.174;2022-07-21T05:36:22;11.27;;;7.40;;
7561;SDS011;3822;48.784;9.174;2022-07-21T05:38:49;9.17;;;6.20;;
7561;SDS011;3822;48.784;9.174;2022-07-21T05:41:15;8.73;;;7.10;;
7561;SDS011;3822;48.784;9.174;2022-07-21T05:43:42;8.53;;;7.20;;
7561;SDS011;3822;48.784;9.174;2022-07-21T05:46:08;8.70;;;7.80;;
7561;SDS011;3822;48.784;9.174;2022-07-21T05:48:35;7.27;;;6.50;;
7561;SDS011;3822;48.784;9.174;2022-07-21T05:51:01;8.97;;;7.33;;
7561;SDS011;3822;48.784;9.174;2022-07-21T05:53:28;7.80;;;7.00;;
7561;SDS011;3822;48.784;9.174;2022-07-21T05:55:54;9.80;;;7.47;;
7561;SDS011;3822;48.784;9.174;2022-07-21T05:58:21;8.23;;;6.83;;
7561;SDS011;3822;48.784;9.174;2022-07-21T06:00:50;9.43;;;7.30;;
7561;SDS011;3822;48.784;9.174;2022-07-21T06:03:39;7.33;;;6.60;;
7561;SDS011;3822;48.784;9.174;2022-07-21T06:06:09;13.43;;;6.87;;
7561;SDS011;3822;48.784;9.174;2022-07-21T06:08:38;7.60;;;6.23;;
7561;SDS011;3822;48.784;9.174;2022-07-21T06:11:07;9.50;;;7.30;;
7561;SDS011;3822;48.784;9.174;2022-07-21T06:13:35;7.47;;;6.67;;
7561;SDS011;3822;48.784;9.174;2022-07-21T06:16:02;7.57;;;6.60;;
7561;SDS011;3822;48.784;9.174;2022-07-21T06:18:29;12.83;;;7.70;;
7561;SDS011;3822;48.784;9.174;2022-07-21T06:20:55;9.23;;;7.10;;
7561;SDS011;3822;48.784;9.174;2022-07-21T06:23:22;6.53;;;5.50;;
7561;SDS011;3822;48.784;9.174;2022-07-21T06:25:50;7.67;;;6.33;;
7561;SDS011;3822;48.784;9.174;2022-07-21T06:28:17;11.50;;;7.53;;
7561;SDS011;3822;48.784;9.174;2022-07-21T06:30:45;8.33;;;6.40;;
7561;SDS011;3822;48.784;9.174;2022-07-21T06:33:15;12.53;;;6.77;;
7561;SDS011;3822;48.784;9.174;2022-07-21T06:35:42;10.10;;;7.27;;
7561;SDS011;3822;48.784;9.174;2022-07-21T06:38:09;9.90;;;8.00;;
7561;SDS011;3822;48.784;9.174;2022-07-21T06:40:36;7.37;;;6.63;;
7561;SDS011;3822;48.784;9.174;2022-07-21T06:43:02;7.37;;;6.60;;
7561;SDS011;3822;48.784;9.174;2022-07-21T06:45:29;7.10;;;6.40;;
7561;SDS011;3822;48.784;9.174;2022-07-21T06:47:59;7.30;;;6.53;;
7561;SDS011;3822;48.784;9.174;2022-07-21T06:50:27;8.43;;;6.70;;
7561;SDS011;3822;48.784;9.174;2022-07-21T06:52:54;11.57;;;7.93;;
7561;SDS011;3822;48.784;9.174;2022-07-21T06:55:20;9.37;;;7.00;;
7561;SDS011;3822;48.784;9.174;2022-07-21T06:57:47;12.33;;;7.27;;
7561;SDS011;3822;48.784;9.174;2022-07-21T07:00:14;9.43;;;7.00;;
7561;SDS011;3822;48.784;9.174;2022-07-21T07:02:41;7.00;;;6.13;;
7561;SDS011;3822;48.784;9.174;2022-07-21T07:05:07;8.90;;;6.50;;
7561;SDS011;3822;48.784;9.174;2022-07-21T07:07:34;8.57;;;6.67;;
7561;SDS011;3822;48.784;9.174;2022-07-21T07:10:01;8.90;;;6.63;;
7561;SDS011;3822;48.784;9.174;2022-07-21T07:12:28;9.37;;;6.40;;
7561;SDS011;3822;48.784;9.174;2022-07-21T07:14:55;9.20;;;7.07;;
7561;SDS011;3822;48.784;9.174;2022-07-21T07:17:21;9.20;;;6.47;;
7561;SDS011;3822;48.784;9.174;2022-07-21T07:19:48;8.30;;;5.90;;
7561;SDS011;3822;48.784;9.174;2022-07-21T07:22:14;6.63;;;5.93;;
7561;SDS011;3822;48.784;9.174;2022-07-21T07:24:41;6.90;;;6.20;;
7561;SDS011;3822;48.784;9.174;2022-07-21T07:27:08;7.67;;;6.70;;
7561;SDS011;3822;48.784;9.174;2022-07-21T07:29:34;8.90;;;6.57;;
7561;SDS011;3822;48.784;9.174;2022-07-21T07:32:03;7.20;;;6.50;;
7561;SDS011;3822;48.784;9.174;2022-07-21T07:34:29;10.27;;;7.10;;
7561;SDS011;3822;48.784;9.174;2022-07-21T07:36:56;9.97;;;6.90;;
7561;SDS011;3822;48.784;9.174;2022-07-21T07:39:22;9.60;;;6.77;;
7561;SDS011;3822;48.784;9.174;2022-07-21T07:41:49;8.30;;;6.63;;
7561;SDS011;3822;48.784;9.174;2022-07-21T07:44:16;8.90;;;6.90;;
7561;SDS011;3822;48.784;9.174;2022-07-21T07:46:42;7.13;;;6.00;;
7561;SDS011;3822;48.784;9.174;2022-07-21T07:49:08;8.00;;;5.73;;
7561;SDS011;3822;48.784;9.174;2022-07-21T07:51:35;7.70;;;5.70;;
7561;SDS011;3822;48.784;9.174;2022-07-21T07:54:01;7.13;;;5.83;;
7561;SDS011;3822;48.784;9.174;2022-07-21T07:56:29;6.93;;;6.00;;
7561;SDS011;3822;48.784;9.174;2022-07-21T07:58:56;8.27;;;5.87;;
7561;SDS011;3822;48.784;9.174;2022-07-21T08:01:23;7.23;;;6.37;;
7561;SDS011;3822;48.784;9.174;2022-07-21T08:03:50;6.50;;;4.93;;
7561;SDS011;3822;48.784;9.174;2022-07-21T08:06:16;7.63;;;6.20;;
7561;SDS011;3822;48.784;9.174;2022-07-21T08:08:43;8.10;;;6.40;;
7561;SDS011;3822;48.784;9.174;2022-07-21T08:11:09;6.57;;;5.33;;
7561;SDS011;3822;48.784;9.174;2022-07-21T08:13:37;8.40;;;6.03;;
7561;SDS011;3822;48.784;9.174;2022-07-21T08:16:04;5.93;;;5.40;;
7561;SDS011;3822;48.784;9.174;2022-07-21T08:18:31;7.80;;;6.00;;
7561;SDS011;3822;48.784;9.174;2022-07-21T08:20:57;6.90;;;6.00;;
7561;SDS011;3822;48.784;9.174;2022-07-21T08:23:24;8.80;;;6.30;;
7561;SDS011;3822;48.784;9.174;2022-07-21T08:25:50;9.07;;;5.30;;
7561;SDS011;3822;48.784;9.174;2022-07-21T08:28:17;6.37;;;5.20;;
7561;SDS011;3822;48.784;9.174;2022-07-21T08:30:43;5.80;;;5.20;;
7561;SDS011;3822;48.784;9.174;2022-07-21T08:33:10;7.40;;;5.83;;
7561;SDS011;3822;48.784;9.174;2022-07-21T08:35:36;12.53;;;5.17;;
7561;SDS011;3822;48.784;9.174;2022-07-21T08:38:04;6.60;;;5.50;;
7561;SDS011;3822;48.784;9.174;2022-07-21T08:40:34;8.17;;;6.20;;
7561;SDS011;3822;48.784;9.174;2022-07-21T08:43:04;12.30;;;6.57;;
7561;SDS011;3822;48.784;9.174;2022-07-21T08:45:34;9.70;;;5.57;;
7561;SDS011;3822;48.784;9.174;2022-07-21T08:48:02;6.23;;;5.33;;
7561;SDS011;3822;48.784;9.174;2022-07-21T08:50:30;7.95;;;5.25;;
7561;SDS011;3822;48.784;9.174;2022-07-21T08:53:00;8.17;;;5.67;;
7561;SDS011;3822;48.784;9.174;2022-07-21T08:55:28;6.53;;;4.90;;
7561;SDS011;3822;48.784;9.174;2022-07-21T08:57:56;8.10;;;5.10;;
7561;SDS011;3822;48.784;9.174;2022-07-21T09:00:23;7.47;;;5.70;;
7561;SDS011;3822;48.784;9.174;2022-07-21T09:03:07;6.23;;;5.07;;
7561;SDS011;3822;48.784;9.174;2022-07-21T09:08:37;6.23;;;5.40;;
7561;SDS011;3822;48.784;9.174;2022-07-21T09:11:08;7.90;;;5.70;;
7561;SDS011;3822;48.784;9.174;2022-07-21T09:13:39;6.37;;;5.57;;
7561;SDS011;3822;48.784;9.174;2022-07-21T09:16:07;5.60;;;5.03;;
7561;SDS011;3822;48.784;9.174;2022-07-21T09:18:41;7.37;;;5.40;;
7561;SDS011;3822;48.784;9.174;2022-07-21T09:21:19;7.87;;;4.57;;
7561;SDS011;3822;48.784;9.174;2022-07-21T09:23:46;5.40;;;4.67;;
7561;SDS011;3822;48.784;9.174;2022-07-21T09:26:12;7.17;;;5.03;;
7561;SDS011;3822;48.784;9.174;2022-07-21T09:28:39;6.63;;;4.80;;
7561;SDS011;3822;48.784;9.174;2022-07-21T09:31:07;4.57;;;3.57;;
7561;SDS011;3822;48.784;9.174;2022-07-21T09:33:37;6.17;;;4.03;;
7561;SDS011;3822;48.784;9.174;2022-07-21T09:41:16;4.70;;;4.13;;
7561;SDS011;3822;48.784;9.174;2022-07-21T09:43:56;5.17;;;4.23;;
7561;SDS011;3822;48.784;9.174;2022-07-21T09:46:26;6.00;;;4.80;;
7561;SDS011;3822;48.784;9.174;2022-07-21T09:48:58;5.60;;;4.40;;
7561;SDS011;3822;48.784;9.174;2022-07-21T09:51:37;5.00;;;4.50;;
7561;SDS011;3822;48.784;9.174;2022-07-21T09:54:06;6.00;;;4.50;;
7561;SDS011;3822;48.784;9.174;2022-07-21T09:56:38;6.67;;;4.80;;
7561;SDS011;3822;48.784;9.174;2022-07-21T09:59:07;6.20;;;4.57;;
7561;SDS011;3822;48.784;9.174;2022-07-21T10:01:37;6.60;;;4.33;;
7561;SDS011;3822;48.784;9.174;2022-07-21T10:04:04;6.50;;;5.10;;
7561;SDS011;3822;48.784;9.174;2022-07-21T10:06:36;6.10;;;4.40;;
7561;SDS011;3822;48.784;9.174;2022-07-21T10:09:06;5.33;;;4.30;;
7561;SDS011;3822;48.784;9.174;2022-07-21T10:11:35;4.30;;;3.90;;
7561;SDS011;3822;48.784;9.174;2022-07-21T10:14:04;5.83;;;3.90;;
7561;SDS011;3822;48.784;9.174;2022-07-21T10:16:31;5.80;;;3.73;;
7561;SDS011;3822;48.784;9.174;2022-07-21T10:24:48;5.03;;;4.00;;
7561;SDS011;3822;48.784;9.174;2022-07-21T10:27:16;4.00;;;3.70;;
7561;SDS011;3822;48.784;9.174;2022-07-21T10:29:51;5.23;;;4.00;;
7561;SDS011;3822;48.784;9.174;2022-07-21T10:32:36;6.07;;;4.07;;
7561;SDS011;3822;48.784;9.174;2022-07-21T10:35:27;5.37;;;4.50;;
7561;SDS011;3822;48.784;9.174;2022-07-21T10:37:57;3.97;;;3.57;;
7561;SDS011;3822;48.784;9.174;2022-07-21T10:45:31;3.73;;;3.17;;
7561;SDS011;3822;48.784;9.174;2022-07-21T10:48:03;4.30;;;3.03;;
7561;SDS011;3822;48.784;9.174;2022-07-21T10:50:54;3.20;;;2.90;;
7561;SDS011;3822;48.784;9.174;2022-07-21T10:53:24;4.47;;;3.30;;
7561;SDS011;3822;48.784;9.174;2022-07-21T10:55:54;4.17;;;3.73;;
7561;SDS011;3822;48.784;9.174;2022-07-21T11:06:38;8.20;;;3.57;;
7561;SDS011;3822;48.784;9.174;2022-07-21T11:09:07;4.90;;;3.60;;
7561;SDS011;3822;48.784;9.174;2022-07-21T11:12:01;4.40;;;3.80;;
7561;SDS011;3822;48.784;9.174;2022-07-21T11:14:36;7.10;;;4.10;;
7561;SDS011;3822;48.784;9.174;2022-07-21T11:17:05;5.70;;;4.20;;
7561;SDS011;3822;48.784;9.174;2022-07-21T11:19:38;3.50;;;3.17;;
7561;SDS011;3822;48.784;9.174;2022-07-21T11:22:19;4.83;;;3.37;;
7561;SDS011;3822;48.784;9.174;2022-07-21T11:27:24;3.60;;;3.30;;
7561;SDS011;3822;48.784;9.174;2022-07-21T11:29:56;3.97;;;3.57;;
7561;SDS011;3822;48.784;9.174;2022-07-21T11:32:28;3.70;;;3.40;;
7561;SDS011;3822;48.784;9.174;2022-07-21T11:34:55;4.60;;;3.93;;
7561;SDS011;3822;48.784;9.174;2022-07-21T11:37:32;4.80;;;3.53;;
7561;SDS011;3822;48.784;9.174;2022-07-21T11:42:40;4.13;;;3.70;;
7561;SDS011;3822;48.784;9.174;2022-07-21T11:45:11;4.30;;;3.67;;
7561;SDS011;3822;48.784;9.174;2022-07-21T11:47:39;4.20;;;3.80;;
7561;SDS011;3822;48.784;9.174;2022-07-21T11:50:09;4.20;;;3.80;;
7561;SDS011;3822;48.784;9.174;2022-07-21T11:52:39;4.77;;;3.63;;
7561;SDS011;3822;48.784;9.174;2022-07-21T11:55:07;4.37;;;3.60;;
7561;SDS011;3822;48.784;9.174;2022-07-21T11:57:36;4.23;;;3.67;;
7561;SDS011;3822;48.784;9.174;2022-07-21T12:00:11;7.00;;;3.40;;
7561;SDS011;3822;48.784;9.174;2022-07-21T12:02:39;5.10;;;3.47;;
7561;SDS011;3822;48.784;9.174;2022-07-21T12:05:07;6.13;;;3.30;;
7561;SDS011;3822;48.784;9.174;2022-07-21T12:10:45;6.23;;;3.60;;
7561;SDS011;3822;48.784;9.174;2022-07-21T12:13:12;6.70;;;3.80;;
7561;SDS011;3822;48.784;9.174;2022-07-21T12:15:39;7.20;;;4.60;;
7561;SDS011;3822;48.784;9.174;2022-07-21T12:18:08;5.77;;;3.90;;
7561;SDS011;3822;48.784;9.174;2022-07-21T12:20:44;4.20;;;3.80;;
7561;SDS011;3822;48.784;9.174;2022-07-21T12:23:22;3.73;;;3.40;;
7561;SDS011;3822;48.784;9.174;2022-07-21T12:25:55;4.30;;;3.30;;
7561;SDS011;3822;48.784;9.174;2022-07-21T12:31:19;11.27;;;4.50;;
7561;SDS011;3822;48.784;9.174;2022-07-21T12:33:47;6.67;;;3.67;;
7561;SDS011;3822;48.784;9.174;2022-07-21T12:36:15;4.50;;;3.80;;
7561;SDS011;3822;48.784;9.174;2022-07-21T12:38:46;5.30;;;4.30;;
7561;SDS011;3822;48.784;9.174;2022-07-21T12:41:16;4.90;;;3.80;;
7561;SDS011;3822;48.784;9.174;2022-07-21T12:43:57;5.17;;;3.73;;
7561;SDS011;3822;48.784;9.174;2022-07-21T12:46:30;7.17;;;4.23;;
7561;SDS011;3822;48.784;9.174;2022-07-21T12:49:04;6.03;;;4.80;;
7561;SDS011;3822;48.784;9.174;2022-07-21T12:51:38;12.63;;;5.10;;
7561;SDS011;3822;48.784;9.174;2022-07-21T12:54:07;5.60;;;4.70;;
7561;SDS011;3822;48.784;9.174;2022-07-21T12:56:34;6.77;;;5.17;;
7561;SDS011;3822;48.784;9.174;2022-07-21T12:59:04;5.40;;;4.53;;
7561;SDS011;3822;48.784;9.174;2022-07-21T13:01:31;8.53;;;4.70;;
7561;SDS011;3822;48.784;9.174;2022-07-21T13:04:00;5.63;;;4.20;;
7561;SDS011;3822;48.784;9.174;2022-07-21T13:06:29;5.50;;;4.90;;
7561;SDS011;3822;48.784;9.174;2022-07-21T13:08:56;5.23;;;4.73;;
7561;SDS011;3822;48.784;9.174;2022-07-21T13:11:22;5.70;;;4.47;;
7561;SDS011;3822;48.784;9.174;2022-07-21T13:13:49;9.60;;;4.43;;
7561;SDS011;3822;48.784;9.174;2022-07-21T13:16:18;5.63;;;4.97;;
7561;SDS011;3822;48.784;9.174;2022-07-21T13:18:46;4.70;;;4.30;;
7561;SDS011;3822;48.784;9.174;2022-07-21T13:21:12;9.10;;;4.60;;
7561;SDS011;3822;48.784;9.174;2022-07-21T13:23:39;7.03;;;5.50;;
7561;SDS011;3822;48.784;9.174;2022-07-21T13:26:06;6.07;;;4.77;;
7561;SDS011;3822;48.784;9.174;2022-07-21T13:28:33;5.17;;;4.53;;
7561;SDS011;3822;48.784;9.174;2022-07-21T13:31:00;4.93;;;4.40;;
7561;SDS011;3822;48.784;9.174;2022-07-21T13:33:27;6.03;;;4.90;;
7561;SDS011;3822;48.784;9.174;2022-07-21T13:35:53;6.80;;;5.20;;
7561;SDS011;3822;48.784;9.174;2022-07-21T13:38:20;6.03;;;4.67;;
7561;SDS011;3822;48.784;9.174;2022-07-21T13:40:46;6.40;;;5.07;;
7561;SDS011;3822;48.784;9.174;2022-07-21T13:43:16;5.27;;;4.77;;
7561;SDS011;3822;48.784;9.174;2022-07-21T13:45:43;7.83;;;4.93;;
7561;SDS011;3822;48.784;9.174;2022-07-21T13:48:09;5.13;;;4.10;;
7561;SDS011;3822;48.784;9.174;2022-07-21T13:50:36;7.73;;;5.13;;
7561;SDS011;3822;48.784;9.174;2022-07-21T13:53:03;5.83;;;4.40;;
7561;SDS011;3822;48.784;9.174;2022-07-21T13:55:35;9.80;;;4.70;;
7561;SDS011;3822;48.784;9.174;2022-07-21T13:58:02;5.70;;;4.67;;
7561;SDS011;3822;48.784;9.174;2022-07-21T14:00:28;13.50;;;4.37;;
7561;SDS011;3822;48.784;9.174;2022-07-21T14:02:55;4.80;;;4.30;;
7561;SDS011;3822;48.784;9.174;2022-07-21T14:05:23;4.67;;;4.00;;
7561;SDS011;3822;48.784;9.174;2022-07-21T14:07:49;4.77;;;4.00;;
7561;SDS011;3822;48.784;9.174;2022-07-21T14:10:16;5.27;;;3.83;;
7561;SDS011;3822;48.784;9.174;2022-07-21T14:12:42;4.90;;;4.10;;
7561;SDS011;3822;48.784;9.174;2022-07-21T14:15:09;5.50;;;4.23;;
7561;SDS011;3822;48.784;9.174;2022-07-21T14:17:36;7.33;;;4.37;;
7561;SDS011;3822;48.784;9.174;2022-07-21T14:20:03;5.33;;;4.40;;
7561;SDS011;3822;48.784;9.174;2022-07-21T14:22:32;5.50;;;4.33;;
7561;SDS011;3822;48.784;9.174;2022-07-21T14:24:59;4.90;;;4.10;;
7561;SDS011;3822;48.784;9.174;2022-07-21T14:27:47;4.50;;;4.10;;
7561;SDS011;3822;48.784;9.174;2022-07-21T14:30:15;7.40;;;4.10;;
7561;SDS011;3822;48.784;9.174;2022-07-21T14:32:43;4.20;;;3.63;;
7561;SDS011;3822;48.784;9.174;2022-07-21T14:35:11;4.80;;;3.73;;
7561;SDS011;3822;48.784;9.174;2022-07-21T14:37:40;5.07;;;4.07;;
7561;SDS011;3822;48.784;9.174;2022-07-21T14:40:07;4.90;;;3.90;;
7561;SDS011;3822;48.784;9.174;2022-07-21T14:42:35;5.97;;;4.20;;
7561;SDS011;3822;48.784;9.174;2022-07-21T14:45:03;4.17;;;3.50;;
7561;SDS011;3822;48.784;9.174;2022-07-21T14:47:31;4.17;;;3.57;;
7561;SDS011;3822;48.784;9.174;2022-07-21T14:49:57;8.63;;;3.73;;
7561;SDS011;3822;48.784;9.174;2022-07-21T14:52:24;6.17;;;4.20;;
7561;SDS011;3822;48.784;9.174;2022-07-21T14:54:50;5.50;;;3.80;;
7561;SDS011;3822;48.784;9.174;2022-07-21T14:57:17;4.07;;;3.67;;
7561;SDS011;3822;48.784;9.174;2022-07-21T14:59:44;4.90;;;3.50;;
7561;SDS011;3822;48.784;9.174;2022-07-21T15:02:10;7.90;;;4.20;;
7561;SDS011;3822;48.784;9.174;2022-07-21T15:04:37;4.40;;;4.00;;
7561;SDS011;3822;48.784;9.174;2022-07-21T15:07:04;5.33;;;3.97;;
7561;SDS011;3822;48.784;9.174;2022-07-21T15:09:31;4.30;;;3.90;;
7561;SDS011;3822;48.784;9.174;2022-07-21T15:11:57;4.60;;;3.90;;
7561;SDS011;3822;48.784;9.174;2022-07-21T15:14:24;3.80;;;3.40;;
7561;SDS011;3822;48.784;9.174;2022-07-21T15:16:50;4.17;;;3.67;;
7561;SDS011;3822;48.784;9.174;2022-07-21T15:19:17;3.70;;;3.40;;
7561;SDS011;3822;48.784;9.174;2022-07-21T15:21:44;4.20;;;3.50;;
7561;SDS011;3822;48.784;9.174;2022-07-21T15:24:10;3.97;;;3.13;;
7561;SDS011;3822;48.784;9.174;2022-07-21T15:26:37;3.70;;;3.40;;
7561;SDS011;3822;48.784;9.174;2022-07-21T15:29:04;3.60;;;3.30;;
7561;SDS011;3822;48.784;9.174;2022-07-21T15:31:30;5.80;;;3.67;;
7561;SDS011;3822;48.784;9.174;2022-07-21T15:33:57;3.80;;;3.40;;
7561;SDS011;3822;48.784;9.174;2022-07-21T15:36:24;4.10;;;3.70;;
7561;SDS011;3822;48.784;9.174;2022-07-21T15:38:51;3.80;;;3.40;;
7561;SDS011;3822;48.784;9.174;2022-07-21T15:41:19;4.23;;;2.97;;
7561;SDS011;3822;48.784;9.174;2022-07-21T15:43:45;4.80;;;3.77;;
7561;SDS011;3822;48.784;9.174;2022-07-21T15:46:12;5.50;;;3.60;;
7561;SDS011;3822;48.784;9.174;2022-07-21T15:48:59;4.37;;;3.43;;
7561;SDS011;3822;48.784;9.174;2022-07-21T15:51:26;4.13;;;3.40;;
7561;SDS011;3822;48.784;9.174;2022-07-21T15:53:52;5.50;;;3.73;;
7561;SDS011;3822;48.784;9.174;2022-07-21T15:56:19;7.50;;;3.43;;
7561;SDS011;3822;48.784;9.174;2022-07-21T15:58:46;6.00;;;3.20;;